메인 페이지
METAR-TAF:

METAR-TAF

공항 :

포스두이구아수, 파라나, 브라질

위도: 25-31S, 경도: 054-35W, 고도: 180m

현재 날씨관측

예보는 1 시간 4분 전, 09:00시(UTC)에 발표되었습니다.
5kt
온도 20°C
습도 94%
기압 1015 hPa
시정 10km 이상
고도 2000ft 상공 구름 조금
고도 10000ft 상공 구름 많음

METAR: SBFI 200900Z 10005KT 9999 FEW020 BKN100 20/19 Q1015

시각: 07:04 (10:04 UTC)

예보

예보는 7 시간 4분 전, 03:00시(UTC)에 발표되었습니다.
예보 대상 시간: 20일 06시부터 21일 06시까지 (UTC)
6kt
시정 10km 이상
고도 3000ft 상공 구름 보통
일시적
20일 08시부터 20일 12시까지 (UTC)
시정: 8000m
고도 3000ft 상공 구름 보통
일시적
20일 21시부터 21일 02시까지 (UTC)
시정: 8000m
고도 3000ft 상공 구름 보통
고도 3500ft 상공 구름 조금, 적란운.
뇌우, 비
전환 중
21일 02시부터 21일 04시까지 (UTC)
고도 4000ft 상공 구름 보통

TAF: SBFI 200300Z 2006/2106 10006KT 9999 SCT030 TN20/2008Z TX25/2017Z TEMPO 2008/2012 8000 RA SCT030 TEMPO 2021/2102 8000 TSRA SCT030 FEW035CB BECMG 2102/2104 SCT040 RMK PEG

4,000개 이상의 공항 관측 자료 및 예보 (METAR 및 TAF 보고).

지도상에서 검색 가능한 기상관측소가 노란 점과 빨간 점으로 표시되어 있습니다.

기상관측소 명을 보려면 표시 위로 마우스를 이동하세요.

날씨 관측과 예보를 보려면 클릭하세요.

지도 변경 : 확대하려면 엑스 표시가 있는 녹색 버튼, 축소하려면 빼기 표시가 있는 녹색 버튼, 다음 페이지의 지도를 보려면 녹색 화살표를 클릭하세요.


METAR-TAF: